To NAV CANADA Home Page Login to a new session Search on AWWS site Feedback and Comments Disclaimer Vers la page française équivalente Tips FAQ What's new on the site To the Forecasts and Observations / NOTAM section To "File a Flight Plan" website Publications and other links Update of the User's profile FIC Telephone Numbers My Weather Data Folder Route Weather Data Regional Weather Data Local Weather Data To the Forecasts and Observations / NOTAM section
Request Generated 04/18/2014 at 18:10:51 UTC . Weather information available at that time is displayed.

METAR/TAF

SASKATOON/JOHN G. DIEFENBAKER INTL/SK    

METAR CYXE 181800Z 14021KT 15SM -SN OVC008 00/M01 A2976 RMK SC8
SLP103=
METAR CYXE 181700Z 13022G30KT 6SM -SN BKN009 OVC020 00/M01 A2977 RMK
SC6SC2 SLP107=
SPECI CYXE 181602Z 13024G33KT 6SM -SN BKN008 OVC030 00/M01 A2978 RMK
SC5SC3 SLP111=
METAR CYXE 181600Z 13021G33KT 15SM -RASN SCT010 OVC032 00/M01 A2978
RMK SC4SC4 SLP110=

TAF CYXE 181751Z 1818/1918 13022G32KT 6SM -SN OVC020 TEMPO 1818/1821
1SM -SN OVC008 PROB30 1818/1821 1/2SM SN VV006
FM182100 13020G30KT 6SM -RA OVC015 TEMPO 1821/1902 11/2SM -RASN
OVC008
FM190200 11015G25KT 3SM -RA BR OVC008 TEMPO 1902/1910 P6SM -RA
OVC012
BECMG 1904/1906 08005KT
FM191000 08005KT 11/2SM -SN BR OVC008 TEMPO 1910/1914 5SM -SN
OVC015
BECMG 1910/1912 34010KT
FM191400 34012KT P6SM BKN030 TEMPO 1914/1918 OVC012
RMK NXT FCST BY 190000Z=
Your time UTC time
Weather data provided by Environment Canada and NAV CANADA